sensor_id;sensor_type;location;lat;lon;timestamp;P1;durP1;ratioP1;P2;durP2;ratioP2
42726;SDS011;28372;56.832;60.658;2023-07-31T00:00:48;13.45;;;8.35;;
42726;SDS011;28372;56.832;60.658;2023-07-31T00:03:16;15.32;;;8.32;;
42726;SDS011;28372;56.832;60.658;2023-07-31T00:05:44;12.55;;;8.02;;
42726;SDS011;28372;56.832;60.658;2023-07-31T00:08:11;12.93;;;8.10;;
42726;SDS011;28372;56.832;60.658;2023-07-31T00:10:39;13.25;;;7.95;;
42726;SDS011;28372;56.832;60.658;2023-07-31T00:13:07;11.90;;;8.00;;
42726;SDS011;28372;56.832;60.658;2023-07-31T00:15:34;14.15;;;8.68;;
42726;SDS011;28372;56.832;60.658;2023-07-31T00:18:02;16.17;;;9.18;;
42726;SDS011;28372;56.832;60.658;2023-07-31T00:20:30;14.65;;;9.30;;
42726;SDS011;28372;56.832;60.658;2023-07-31T00:22:58;15.80;;;9.20;;
42726;SDS011;28372;56.832;60.658;2023-07-31T00:25:25;14.95;;;9.15;;
42726;SDS011;28372;56.832;60.658;2023-07-31T00:27:53;16.27;;;9.73;;
42726;SDS011;28372;56.832;60.658;2023-07-31T00:30:21;15.55;;;9.90;;
42726;SDS011;28372;56.832;60.658;2023-07-31T00:32:49;16.20;;;9.35;;
42726;SDS011;28372;56.832;60.658;2023-07-31T00:35:17;16.08;;;9.65;;
42726;SDS011;28372;56.832;60.658;2023-07-31T00:37:44;14.02;;;9.50;;
42726;SDS011;28372;56.832;60.658;2023-07-31T00:40:12;16.15;;;9.35;;
42726;SDS011;28372;56.832;60.658;2023-07-31T00:42:41;16.20;;;8.43;;
42726;SDS011;28372;56.832;60.658;2023-07-31T00:45:08;14.48;;;8.88;;
42726;SDS011;28372;56.832;60.658;2023-07-31T00:47:36;15.63;;;7.95;;
42726;SDS011;28372;56.832;60.658;2023-07-31T00:50:04;14.18;;;8.40;;
42726;SDS011;28372;56.832;60.658;2023-07-31T00:52:34;12.63;;;7.97;;
42726;SDS011;28372;56.832;60.658;2023-07-31T00:55:03;13.52;;;8.00;;
42726;SDS011;28372;56.832;60.658;2023-07-31T00:57:32;13.82;;;7.95;;
42726;SDS011;28372;56.832;60.658;2023-07-31T01:00:02;14.98;;;8.13;;
42726;SDS011;28372;56.832;60.658;2023-07-31T01:02:32;13.63;;;7.78;;
42726;SDS011;28372;56.832;60.658;2023-07-31T01:05:00;12.68;;;7.57;;
42726;SDS011;28372;56.832;60.658;2023-07-31T01:07:42;11.98;;;7.30;;
42726;SDS011;28372;56.832;60.658;2023-07-31T01:10:27;12.55;;;7.45;;
42726;SDS011;28372;56.832;60.658;2023-07-31T01:13:01;12.82;;;7.65;;
42726;SDS011;28372;56.832;60.658;2023-07-31T01:15:30;16.05;;;7.70;;
42726;SDS011;28372;56.832;60.658;2023-07-31T01:17:58;13.30;;;7.82;;
42726;SDS011;28372;56.832;60.658;2023-07-31T01:20:26;13.40;;;7.85;;
42726;SDS011;28372;56.832;60.658;2023-07-31T01:28:39;14.48;;;8.27;;
42726;SDS011;28372;56.832;60.658;2023-07-31T01:31:14;12.68;;;7.85;;
42726;SDS011;28372;56.832;60.658;2023-07-31T01:33:47;14.05;;;7.90;;
42726;SDS011;28372;56.832;60.658;2023-07-31T01:36:16;14.85;;;8.48;;
42726;SDS011;28372;56.832;60.658;2023-07-31T01:38:44;15.25;;;8.18;;
42726;SDS011;28372;56.832;60.658;2023-07-31T01:41:12;13.38;;;8.48;;
42726;SDS011;28372;56.832;60.658;2023-07-31T01:43:40;12.57;;;7.90;;
42726;SDS011;28372;56.832;60.658;2023-07-31T01:46:08;15.20;;;8.23;;
42726;SDS011;28372;56.832;60.658;2023-07-31T01:48:35;15.25;;;8.55;;
42726;SDS011;28372;56.832;60.658;2023-07-31T01:51:05;14.50;;;8.93;;
42726;SDS011;28372;56.832;60.658;2023-07-31T01:53:33;12.63;;;8.82;;
42726;SDS011;28372;56.832;60.658;2023-07-31T01:56:00;16.15;;;8.38;;
42726;SDS011;28372;56.832;60.658;2023-07-31T01:58:30;17.13;;;9.15;;
42726;SDS011;28372;56.832;60.658;2023-07-31T02:00:58;17.40;;;8.48;;
42726;SDS011;28372;56.832;60.658;2023-07-31T02:03:26;13.27;;;7.70;;
42726;SDS011;28372;56.832;60.658;2023-07-31T02:05:54;16.80;;;8.77;;
42726;SDS011;28372;56.832;60.658;2023-07-31T02:08:24;16.17;;;9.05;;
42726;SDS011;28372;56.832;60.658;2023-07-31T02:10:53;17.77;;;9.05;;
42726;SDS011;28372;56.832;60.658;2023-07-31T02:13:22;17.60;;;9.13;;
42726;SDS011;28372;56.832;60.658;2023-07-31T02:15:51;15.80;;;9.43;;
42726;SDS011;28372;56.832;60.658;2023-07-31T02:18:19;17.23;;;9.77;;
42726;SDS011;28372;56.832;60.658;2023-07-31T02:20:50;15.73;;;9.20;;
42726;SDS011;28372;56.832;60.658;2023-07-31T02:23:19;18.92;;;9.20;;
42726;SDS011;28372;56.832;60.658;2023-07-31T02:25:47;15.45;;;9.00;;
42726;SDS011;28372;56.832;60.658;2023-07-31T02:28:14;17.35;;;9.85;;
42726;SDS011;28372;56.832;60.658;2023-07-31T02:30:45;14.70;;;9.48;;
42726;SDS011;28372;56.832;60.658;2023-07-31T02:33:15;18.52;;;9.85;;
42726;SDS011;28372;56.832;60.658;2023-07-31T02:35:43;17.95;;;9.05;;
42726;SDS011;28372;56.832;60.658;2023-07-31T02:38:11;17.65;;;10.10;;
42726;SDS011;28372;56.832;60.658;2023-07-31T02:40:39;14.45;;;9.02;;
42726;SDS011;28372;56.832;60.658;2023-07-31T02:43:10;14.85;;;8.57;;
42726;SDS011;28372;56.832;60.658;2023-07-31T02:45:39;15.63;;;9.13;;
42726;SDS011;28372;56.832;60.658;2023-07-31T02:48:06;14.27;;;9.23;;
42726;SDS011;28372;56.832;60.658;2023-07-31T02:50:35;14.35;;;8.80;;
42726;SDS011;28372;56.832;60.658;2023-07-31T02:53:02;17.67;;;9.98;;
42726;SDS011;28372;56.832;60.658;2023-07-31T02:55:30;18.83;;;9.43;;
42726;SDS011;28372;56.832;60.658;2023-07-31T02:57:58;14.80;;;9.43;;
42726;SDS011;28372;56.832;60.658;2023-07-31T03:00:26;14.55;;;9.02;;
42726;SDS011;28372;56.832;60.658;2023-07-31T03:02:53;17.23;;;9.00;;
42726;SDS011;28372;56.832;60.658;2023-07-31T03:05:21;15.02;;;8.57;;
42726;SDS011;28372;56.832;60.658;2023-07-31T03:07:49;18.63;;;9.10;;
42726;SDS011;28372;56.832;60.658;2023-07-31T03:10:17;15.60;;;8.27;;
42726;SDS011;28372;56.832;60.658;2023-07-31T03:12:48;16.92;;;8.20;;
42726;SDS011;28372;56.832;60.658;2023-07-31T03:15:16;17.63;;;7.95;;
42726;SDS011;28372;56.832;60.658;2023-07-31T03:17:44;14.30;;;8.15;;
42726;SDS011;28372;56.832;60.658;2023-07-31T03:20:12;16.70;;;8.60;;
42726;SDS011;28372;56.832;60.658;2023-07-31T03:22:39;12.75;;;7.97;;
42726;SDS011;28372;56.832;60.658;2023-07-31T03:25:07;13.35;;;7.85;;
42726;SDS011;28372;56.832;60.658;2023-07-31T03:27:37;16.17;;;8.93;;
42726;SDS011;28372;56.832;60.658;2023-07-31T03:30:05;13.63;;;8.15;;
42726;SDS011;28372;56.832;60.658;2023-07-31T03:32:33;17.27;;;8.55;;
42726;SDS011;28372;56.832;60.658;2023-07-31T03:35:01;14.63;;;8.15;;
42726;SDS011;28372;56.832;60.658;2023-07-31T03:37:30;12.43;;;7.95;;
42726;SDS011;28372;56.832;60.658;2023-07-31T03:39:58;15.32;;;8.80;;
42726;SDS011;28372;56.832;60.658;2023-07-31T03:42:25;14.25;;;8.30;;
42726;SDS011;28372;56.832;60.658;2023-07-31T03:44:53;15.48;;;8.57;;
42726;SDS011;28372;56.832;60.658;2023-07-31T03:47:21;12.27;;;8.35;;
42726;SDS011;28372;56.832;60.658;2023-07-31T03:49:49;14.40;;;8.13;;
42726;SDS011;28372;56.832;60.658;2023-07-31T03:52:16;15.20;;;8.40;;
42726;SDS011;28372;56.832;60.658;2023-07-31T03:54:44;14.07;;;8.50;;
42726;SDS011;28372;56.832;60.658;2023-07-31T03:57:12;13.55;;;8.35;;
42726;SDS011;28372;56.832;60.658;2023-07-31T03:59:40;18.52;;;8.30;;
42726;SDS011;28372;56.832;60.658;2023-07-31T04:02:07;13.65;;;8.38;;
42726;SDS011;28372;56.832;60.658;2023-07-31T04:04:35;10.60;;;7.70;;
42726;SDS011;28372;56.832;60.658;2023-07-31T04:07:03;14.45;;;8.52;;
42726;SDS011;28372;56.832;60.658;2023-07-31T04:09:30;12.48;;;7.70;;
42726;SDS011;28372;56.832;60.658;2023-07-31T04:11:58;12.05;;;8.02;;
42726;SDS011;28372;56.832;60.658;2023-07-31T04:14:25;12.38;;;8.18;;
42726;SDS011;28372;56.832;60.658;2023-07-31T04:16:53;11.00;;;8.35;;
42726;SDS011;28372;56.832;60.658;2023-07-31T04:19:21;11.85;;;8.35;;
42726;SDS011;28372;56.832;60.658;2023-07-31T04:21:49;12.52;;;7.82;;
42726;SDS011;28372;56.832;60.658;2023-07-31T04:24:16;13.43;;;8.27;;
42726;SDS011;28372;56.832;60.658;2023-07-31T04:26:51;10.80;;;7.75;;
42726;SDS011;28372;56.832;60.658;2023-07-31T04:29:19;10.02;;;7.20;;
42726;SDS011;28372;56.832;60.658;2023-07-31T04:31:47;14.55;;;7.70;;
42726;SDS011;28372;56.832;60.658;2023-07-31T04:34:16;13.57;;;7.32;;
42726;SDS011;28372;56.832;60.658;2023-07-31T04:36:43;13.25;;;8.07;;
42726;SDS011;28372;56.832;60.658;2023-07-31T04:39:11;9.88;;;7.00;;
42726;SDS011;28372;56.832;60.658;2023-07-31T04:41:39;13.98;;;7.63;;
42726;SDS011;28372;56.832;60.658;2023-07-31T04:44:06;10.60;;;7.85;;
42726;SDS011;28372;56.832;60.658;2023-07-31T04:46:34;13.00;;;7.50;;
42726;SDS011;28372;56.832;60.658;2023-07-31T04:49:02;13.30;;;7.70;;
42726;SDS011;28372;56.832;60.658;2023-07-31T04:51:30;12.25;;;8.07;;
42726;SDS011;28372;56.832;60.658;2023-07-31T04:53:58;11.55;;;7.93;;
42726;SDS011;28372;56.832;60.658;2023-07-31T04:56:26;11.43;;;7.70;;
42726;SDS011;28372;56.832;60.658;2023-07-31T04:58:53;11.93;;;7.15;;
42726;SDS011;28372;56.832;60.658;2023-07-31T05:01:22;10.00;;;7.38;;
42726;SDS011;28372;56.832;60.658;2023-07-31T05:03:49;12.65;;;7.43;;
42726;SDS011;28372;56.832;60.658;2023-07-31T05:06:17;12.32;;;8.13;;
42726;SDS011;28372;56.832;60.658;2023-07-31T05:08:44;15.10;;;8.25;;
42726;SDS011;28372;56.832;60.658;2023-07-31T05:11:12;13.35;;;8.10;;
42726;SDS011;28372;56.832;60.658;2023-07-31T05:13:40;12.77;;;7.80;;
42726;SDS011;28372;56.832;60.658;2023-07-31T05:16:07;14.48;;;8.63;;
42726;SDS011;28372;56.832;60.658;2023-07-31T05:18:35;14.90;;;9.13;;
42726;SDS011;28372;56.832;60.658;2023-07-31T05:21:03;14.30;;;8.73;;
42726;SDS011;28372;56.832;60.658;2023-07-31T05:23:30;11.73;;;8.68;;
42726;SDS011;28372;56.832;60.658;2023-07-31T05:26:03;13.20;;;8.70;;
42726;SDS011;28372;56.832;60.658;2023-07-31T05:28:35;16.42;;;8.98;;
42726;SDS011;28372;56.832;60.658;2023-07-31T05:31:04;12.07;;;8.77;;
42726;SDS011;28372;56.832;60.658;2023-07-31T05:33:32;14.32;;;9.10;;
42726;SDS011;28372;56.832;60.658;2023-07-31T05:36:00;13.02;;;9.18;;
42726;SDS011;28372;56.832;60.658;2023-07-31T05:38:28;14.65;;;9.65;;
42726;SDS011;28372;56.832;60.658;2023-07-31T05:40:55;12.80;;;9.05;;
42726;SDS011;28372;56.832;60.658;2023-07-31T05:43:23;13.65;;;10.02;;
42726;SDS011;28372;56.832;60.658;2023-07-31T05:45:51;16.15;;;9.80;;
42726;SDS011;28372;56.832;60.658;2023-07-31T05:48:18;13.63;;;9.82;;
42726;SDS011;28372;56.832;60.658;2023-07-31T05:50:46;15.45;;;10.55;;
42726;SDS011;28372;56.832;60.658;2023-07-31T05:53:14;13.55;;;10.55;;
42726;SDS011;28372;56.832;60.658;2023-07-31T05:55:41;15.70;;;10.98;;
42726;SDS011;28372;56.832;60.658;2023-07-31T05:58:09;11.85;;;9.25;;
42726;SDS011;28372;56.832;60.658;2023-07-31T06:00:37;11.48;;;8.73;;
42726;SDS011;28372;56.832;60.658;2023-07-31T06:03:05;14.07;;;9.20;;
42726;SDS011;28372;56.832;60.658;2023-07-31T06:05:33;13.98;;;8.48;;
42726;SDS011;28372;56.832;60.658;2023-07-31T06:08:00;10.10;;;7.38;;
42726;SDS011;28372;56.832;60.658;2023-07-31T06:10:28;10.70;;;7.60;;
42726;SDS011;28372;56.832;60.658;2023-07-31T06:12:56;12.77;;;8.65;;
42726;SDS011;28372;56.832;60.658;2023-07-31T06:15:24;16.95;;;8.95;;
42726;SDS011;28372;56.832;60.658;2023-07-31T06:17:52;10.13;;;6.20;;
42726;SDS011;28372;56.832;60.658;2023-07-31T06:20:21;10.02;;;7.00;;
42726;SDS011;28372;56.832;60.658;2023-07-31T06:22:49;9.27;;;6.95;;
42726;SDS011;28372;56.832;60.658;2023-07-31T06:25:16;9.95;;;6.72;;
42726;SDS011;28372;56.832;60.658;2023-07-31T06:27:44;10.02;;;6.72;;
42726;SDS011;28372;56.832;60.658;2023-07-31T06:30:12;7.80;;;5.53;;
42726;SDS011;28372;56.832;60.658;2023-07-31T06:32:39;7.65;;;5.10;;
42726;SDS011;28372;56.832;60.658;2023-07-31T06:35:08;6.43;;;5.22;;
42726;SDS011;28372;56.832;60.658;2023-07-31T06:37:36;8.25;;;5.80;;
42726;SDS011;28372;56.832;60.658;2023-07-31T06:40:04;7.38;;;5.50;;
42726;SDS011;28372;56.832;60.658;2023-07-31T06:42:34;7.55;;;5.75;;
42726;SDS011;28372;56.832;60.658;2023-07-31T06:45:02;8.73;;;6.00;;
42726;SDS011;28372;56.832;60.658;2023-07-31T06:47:32;7.30;;;5.60;;
42726;SDS011;28372;56.832;60.658;2023-07-31T06:50:00;8.35;;;6.00;;
42726;SDS011;28372;56.832;60.658;2023-07-31T06:52:30;9.07;;;5.32;;
42726;SDS011;28372;56.832;60.658;2023-07-31T06:55:02;9.55;;;5.93;;
42726;SDS011;28372;56.832;60.658;2023-07-31T06:57:47;9.27;;;5.65;;
42726;SDS011;28372;56.832;60.658;2023-07-31T07:00:18;7.55;;;5.15;;
42726;SDS011;28372;56.832;60.658;2023-07-31T07:02:48;8.52;;;5.65;;
42726;SDS011;28372;56.832;60.658;2023-07-31T07:05:16;8.18;;;5.97;;
42726;SDS011;28372;56.832;60.658;2023-07-31T07:07:45;7.60;;;5.72;;
42726;SDS011;28372;56.832;60.658;2023-07-31T07:10:13;7.22;;;5.47;;
42726;SDS011;28372;56.832;60.658;2023-07-31T07:12:40;8.60;;;5.85;;
42726;SDS011;28372;56.832;60.658;2023-07-31T07:15:08;8.57;;;5.53;;
42726;SDS011;28372;56.832;60.658;2023-07-31T07:17:36;7.95;;;5.57;;
42726;SDS011;28372;56.832;60.658;2023-07-31T07:20:04;8.68;;;5.88;;
42726;SDS011;28372;56.832;60.658;2023-07-31T07:22:32;8.82;;;5.80;;
42726;SDS011;28372;56.832;60.658;2023-07-31T07:25:00;7.75;;;5.70;;
42726;SDS011;28372;56.832;60.658;2023-07-31T07:27:30;6.72;;;5.25;;
42726;SDS011;28372;56.832;60.658;2023-07-31T07:29:57;7.85;;;5.78;;
42726;SDS011;28372;56.832;60.658;2023-07-31T07:32:25;6.32;;;5.32;;
42726;SDS011;28372;56.832;60.658;2023-07-31T07:34:53;8.05;;;5.65;;
42726;SDS011;28372;56.832;60.658;2023-07-31T07:37:20;7.13;;;5.40;;
42726;SDS011;28372;56.832;60.658;2023-07-31T07:39:48;9.40;;;5.80;;
42726;SDS011;28372;56.832;60.658;2023-07-31T07:42:16;6.18;;;5.10;;
42726;SDS011;28372;56.832;60.658;2023-07-31T07:44:44;7.32;;;5.65;;
42726;SDS011;28372;56.832;60.658;2023-07-31T07:47:12;8.60;;;5.50;;
42726;SDS011;28372;56.832;60.658;2023-07-31T07:49:40;7.78;;;5.38;;
42726;SDS011;28372;56.832;60.658;2023-07-31T07:52:08;7.18;;;5.35;;
42726;SDS011;28372;56.832;60.658;2023-07-31T07:54:35;8.52;;;5.90;;
42726;SDS011;28372;56.832;60.658;2023-07-31T07:57:03;8.45;;;5.63;;
42726;SDS011;28372;56.832;60.658;2023-07-31T07:59:31;9.07;;;5.70;;
42726;SDS011;28372;56.832;60.658;2023-07-31T08:01:59;7.22;;;5.50;;
42726;SDS011;28372;56.832;60.658;2023-07-31T08:04:27;7.38;;;5.40;;
42726;SDS011;28372;56.832;60.658;2023-07-31T08:06:54;7.90;;;5.82;;
42726;SDS011;28372;56.832;60.658;2023-07-31T08:09:22;7.00;;;5.10;;
42726;SDS011;28372;56.832;60.658;2023-07-31T08:11:50;9.23;;;5.95;;
42726;SDS011;28372;56.832;60.658;2023-07-31T08:14:18;10.80;;;5.60;;
42726;SDS011;28372;56.832;60.658;2023-07-31T08:16:45;8.20;;;5.72;;
42726;SDS011;28372;56.832;60.658;2023-07-31T08:19:13;11.88;;;6.60;;
42726;SDS011;28372;56.832;60.658;2023-07-31T08:21:41;9.13;;;6.45;;
42726;SDS011;28372;56.832;60.658;2023-07-31T08:24:09;7.18;;;5.72;;
42726;SDS011;28372;56.832;60.658;2023-07-31T08:26:36;7.47;;;5.78;;
42726;SDS011;28372;56.832;60.658;2023-07-31T08:29:05;7.65;;;6.05;;
42726;SDS011;28372;56.832;60.658;2023-07-31T08:31:32;9.38;;;6.38;;
42726;SDS011;28372;56.832;60.658;2023-07-31T08:34:00;8.23;;;5.47;;
42726;SDS011;28372;56.832;60.658;2023-07-31T08:36:28;9.32;;;5.80;;
42726;SDS011;28372;56.832;60.658;2023-07-31T08:38:56;8.50;;;5.90;;
42726;SDS011;28372;56.832;60.658;2023-07-31T08:41:24;7.32;;;6.03;;
42726;SDS011;28372;56.832;60.658;2023-07-31T08:43:52;8.50;;;6.07;;
42726;SDS011;28372;56.832;60.658;2023-07-31T08:46:22;8.73;;;5.97;;
42726;SDS011;28372;56.832;60.658;2023-07-31T08:48:50;8.68;;;5.78;;
42726;SDS011;28372;56.832;60.658;2023-07-31T08:51:20;9.38;;;6.07;;
42726;SDS011;28372;56.832;60.658;2023-07-31T08:53:47;8.95;;;5.82;;
42726;SDS011;28372;56.832;60.658;2023-07-31T08:56:15;7.20;;;6.30;;
42726;SDS011;28372;56.832;60.658;2023-07-31T09:46:39;10.23;;;6.20;;
42726;SDS011;28372;56.832;60.658;2023-07-31T09:49:12;9.80;;;6.47;;
42726;SDS011;28372;56.832;60.658;2023-07-31T09:51:41;9.35;;;5.97;;
42726;SDS011;28372;56.832;60.658;2023-07-31T09:54:10;8.45;;;6.10;;
42726;SDS011;28372;56.832;60.658;2023-07-31T09:56:43;10.95;;;6.30;;
42726;SDS011;28372;56.832;60.658;2023-07-31T09:59:16;9.63;;;6.30;;
42726;SDS011;28372;56.832;60.658;2023-07-31T10:01:50;10.65;;;6.38;;
42726;SDS011;28372;56.832;60.658;2023-07-31T10:04:22;12.00;;;6.47;;
42726;SDS011;28372;56.832;60.658;2023-07-31T10:06:54;9.45;;;6.15;;
42726;SDS011;28372;56.832;60.658;2023-07-31T10:09:22;8.32;;;6.20;;
42726;SDS011;28372;56.832;60.658;2023-07-31T10:11:56;10.32;;;6.60;;
42726;SDS011;28372;56.832;60.658;2023-07-31T10:14:30;11.02;;;6.35;;
42726;SDS011;28372;56.832;60.658;2023-07-31T10:16:58;10.55;;;6.05;;
42726;SDS011;28372;56.832;60.658;2023-07-31T10:19:26;7.03;;;5.90;;
42726;SDS011;28372;56.832;60.658;2023-07-31T10:21:54;7.22;;;6.13;;
42726;SDS011;28372;56.832;60.658;2023-07-31T10:24:24;11.82;;;6.53;;
42726;SDS011;28372;56.832;60.658;2023-07-31T10:26:52;10.13;;;5.88;;
42726;SDS011;28372;56.832;60.658;2023-07-31T10:29:24;9.35;;;6.00;;
42726;SDS011;28372;56.832;60.658;2023-07-31T10:31:53;9.05;;;6.00;;
42726;SDS011;28372;56.832;60.658;2023-07-31T10:34:24;8.07;;;6.10;;
42726;SDS011;28372;56.832;60.658;2023-07-31T10:39:58;8.75;;;6.78;;
42726;SDS011;28372;56.832;60.658;2023-07-31T10:42:34;7.25;;;6.18;;
42726;SDS011;28372;56.832;60.658;2023-07-31T10:45:11;10.52;;;6.28;;
42726;SDS011;28372;56.832;60.658;2023-07-31T10:47:43;10.35;;;6.38;;
42726;SDS011;28372;56.832;60.658;2023-07-31T10:52:40;8.82;;;6.32;;
42726;SDS011;28372;56.832;60.658;2023-07-31T10:58:08;9.18;;;6.60;;
42726;SDS011;28372;56.832;60.658;2023-07-31T11:00:38;11.65;;;6.13;;
42726;SDS011;28372;56.832;60.658;2023-07-31T11:05:43;13.85;;;6.55;;
42726;SDS011;28372;56.832;60.658;2023-07-31T11:10:42;10.20;;;6.15;;
42726;SDS011;28372;56.832;60.658;2023-07-31T11:13:11;11.50;;;6.30;;
42726;SDS011;28372;56.832;60.658;2023-07-31T11:15:39;10.90;;;6.50;;
42726;SDS011;28372;56.832;60.658;2023-07-31T11:18:07;9.18;;;6.30;;
42726;SDS011;28372;56.832;60.658;2023-07-31T11:20:37;12.80;;;6.60;;
42726;SDS011;28372;56.832;60.658;2023-07-31T11:23:07;8.75;;;6.55;;
42726;SDS011;28372;56.832;60.658;2023-07-31T11:25:37;10.25;;;6.55;;
42726;SDS011;28372;56.832;60.658;2023-07-31T11:28:08;10.75;;;6.32;;
42726;SDS011;28372;56.832;60.658;2023-07-31T11:30:38;10.30;;;6.30;;
42726;SDS011;28372;56.832;60.658;2023-07-31T11:33:08;9.00;;;6.32;;
42726;SDS011;28372;56.832;60.658;2023-07-31T11:35:45;9.45;;;6.18;;
42726;SDS011;28372;56.832;60.658;2023-07-31T11:38:22;10.73;;;6.22;;
42726;SDS011;28372;56.832;60.658;2023-07-31T11:40:53;9.05;;;6.03;;
42726;SDS011;28372;56.832;60.658;2023-07-31T11:43:23;9.45;;;6.53;;
42726;SDS011;28372;56.832;60.658;2023-07-31T11:45:52;11.13;;;6.57;;
42726;SDS011;28372;56.832;60.658;2023-07-31T11:48:24;10.15;;;6.00;;
42726;SDS011;28372;56.832;60.658;2023-07-31T11:51:00;8.88;;;5.82;;
42726;SDS011;28372;56.832;60.658;2023-07-31T11:56:02;9.55;;;6.40;;
42726;SDS011;28372;56.832;60.658;2023-07-31T11:58:34;8.68;;;6.15;;
42726;SDS011;28372;56.832;60.658;2023-07-31T12:01:03;9.55;;;6.40;;
42726;SDS011;28372;56.832;60.658;2023-07-31T12:03:32;10.73;;;6.15;;
42726;SDS011;28372;56.832;60.658;2023-07-31T12:06:01;9.02;;;6.22;;
42726;SDS011;28372;56.832;60.658;2023-07-31T12:08:29;9.80;;;6.40;;
42726;SDS011;28372;56.832;60.658;2023-07-31T12:11:01;8.93;;;6.25;;
42726;SDS011;28372;56.832;60.658;2023-07-31T12:13:32;13.10;;;6.40;;
42726;SDS011;28372;56.832;60.658;2023-07-31T12:16:01;13.05;;;6.63;;
42726;SDS011;28372;56.832;60.658;2023-07-31T12:18:34;9.90;;;6.43;;
42726;SDS011;28372;56.832;60.658;2023-07-31T12:21:06;12.27;;;6.78;;
42726;SDS011;28372;56.832;60.658;2023-07-31T12:23:35;11.98;;;6.63;;
42726;SDS011;28372;56.832;60.658;2023-07-31T12:26:11;15.80;;;6.78;;
42726;SDS011;28372;56.832;60.658;2023-07-31T12:28:48;11.25;;;6.55;;
42726;SDS011;28372;56.832;60.658;2023-07-31T12:31:19;7.55;;;5.95;;
42726;SDS011;28372;56.832;60.658;2023-07-31T12:33:50;9.55;;;6.32;;
42726;SDS011;28372;56.832;60.658;2023-07-31T12:36:21;9.82;;;6.07;;
42726;SDS011;28372;56.832;60.658;2023-07-31T12:38:50;9.70;;;6.13;;
42726;SDS011;28372;56.832;60.658;2023-07-31T12:41:18;13.07;;;6.70;;
42726;SDS011;28372;56.832;60.658;2023-07-31T12:43:46;9.98;;;6.20;;
42726;SDS011;28372;56.832;60.658;2023-07-31T12:46:14;11.00;;;7.05;;
42726;SDS011;28372;56.832;60.658;2023-07-31T12:48:43;11.77;;;6.70;;
42726;SDS011;28372;56.832;60.658;2023-07-31T12:51:10;13.70;;;6.25;;
42726;SDS011;28372;56.832;60.658;2023-07-31T12:53:38;13.18;;;6.32;;
42726;SDS011;28372;56.832;60.658;2023-07-31T12:56:06;10.57;;;6.35;;
42726;SDS011;28372;56.832;60.658;2023-07-31T12:58:33;10.52;;;6.40;;
42726;SDS011;28372;56.832;60.658;2023-07-31T13:01:01;12.50;;;6.65;;
42726;SDS011;28372;56.832;60.658;2023-07-31T13:03:29;10.27;;;6.40;;
42726;SDS011;28372;56.832;60.658;2023-07-31T13:05:57;11.93;;;6.75;;
42726;SDS011;28372;56.832;60.658;2023-07-31T13:08:25;9.43;;;6.78;;
42726;SDS011;28372;56.832;60.658;2023-07-31T13:10:53;12.18;;;6.15;;
42726;SDS011;28372;56.832;60.658;2023-07-31T13:13:20;13.48;;;6.70;;
42726;SDS011;28372;56.832;60.658;2023-07-31T13:15:49;10.95;;;6.57;;
42726;SDS011;28372;56.832;60.658;2023-07-31T13:18:17;10.38;;;6.32;;
42726;SDS011;28372;56.832;60.658;2023-07-31T13:20:44;8.98;;;6.10;;
42726;SDS011;28372;56.832;60.658;2023-07-31T13:23:12;10.35;;;6.25;;
42726;SDS011;28372;56.832;60.658;2023-07-31T13:25:40;12.32;;;6.38;;
42726;SDS011;28372;56.832;60.658;2023-07-31T13:28:07;10.30;;;6.10;;
42726;SDS011;28372;56.832;60.658;2023-07-31T13:30:35;10.05;;;5.88;;
42726;SDS011;28372;56.832;60.658;2023-07-31T13:33:03;10.30;;;6.82;;
42726;SDS011;28372;56.832;60.658;2023-07-31T13:35:31;8.80;;;6.07;;
42726;SDS011;28372;56.832;60.658;2023-07-31T13:37:59;8.52;;;6.30;;
42726;SDS011;28372;56.832;60.658;2023-07-31T13:40:26;11.48;;;5.85;;
42726;SDS011;28372;56.832;60.658;2023-07-31T13:42:54;8.55;;;6.10;;
42726;SDS011;28372;56.832;60.658;2023-07-31T13:45:22;10.57;;;6.35;;
42726;SDS011;28372;56.832;60.658;2023-07-31T13:47:50;8.63;;;6.30;;
42726;SDS011;28372;56.832;60.658;2023-07-31T13:50:18;9.07;;;6.40;;
42726;SDS011;28372;56.832;60.658;2023-07-31T13:52:48;9.23;;;6.30;;
42726;SDS011;28372;56.832;60.658;2023-07-31T13:55:15;8.27;;;5.85;;
42726;SDS011;28372;56.832;60.658;2023-07-31T13:57:43;7.35;;;6.10;;
42726;SDS011;28372;56.832;60.658;2023-07-31T14:00:11;9.98;;;5.80;;
42726;SDS011;28372;56.832;60.658;2023-07-31T14:02:39;8.85;;;5.50;;
42726;SDS011;28372;56.832;60.658;2023-07-31T14:05:07;9.25;;;5.72;;
42726;SDS011;28372;56.832;60.658;2023-07-31T14:07:36;9.27;;;5.57;;
42726;SDS011;28372;56.832;60.658;2023-07-31T14:10:05;11.00;;;5.70;;
42726;SDS011;28372;56.832;60.658;2023-07-31T14:12:33;8.57;;;5.63;;
42726;SDS011;28372;56.832;60.658;2023-07-31T14:15:09;8.82;;;5.45;;
42726;SDS011;28372;56.832;60.658;2023-07-31T14:17:38;7.88;;;5.20;;
42726;SDS011;28372;56.832;60.658;2023-07-31T14:20:07;10.13;;;5.82;;
42726;SDS011;28372;56.832;60.658;2023-07-31T14:22:36;8.73;;;5.10;;
42726;SDS011;28372;56.832;60.658;2023-07-31T14:25:05;9.63;;;4.97;;
42726;SDS011;28372;56.832;60.658;2023-07-31T14:27:34;6.95;;;5.22;;
42726;SDS011;28372;56.832;60.658;2023-07-31T14:30:02;6.60;;;4.70;;
42726;SDS011;28372;56.832;60.658;2023-07-31T14:32:30;8.07;;;5.25;;
42726;SDS011;28372;56.832;60.658;2023-07-31T14:34:59;10.00;;;5.75;;
42726;SDS011;28372;56.832;60.658;2023-07-31T14:37:36;6.15;;;4.80;;
42726;SDS011;28372;56.832;60.658;2023-07-31T14:40:08;8.30;;;5.40;;
42726;SDS011;28372;56.832;60.658;2023-07-31T14:42:38;9.52;;;5.65;;
42726;SDS011;28372;56.832;60.658;2023-07-31T14:45:06;10.52;;;5.28;;
42726;SDS011;28372;56.832;60.658;2023-07-31T14:47:35;7.18;;;5.07;;
42726;SDS011;28372;56.832;60.658;2023-07-31T14:50:03;6.72;;;4.93;;
42726;SDS011;28372;56.832;60.658;2023-07-31T14:52:31;11.98;;;5.47;;
42726;SDS011;28372;56.832;60.658;2023-07-31T14:54:59;7.68;;;5.18;;
42726;SDS011;28372;56.832;60.658;2023-07-31T14:57:27;6.90;;;5.07;;
42726;SDS011;28372;56.832;60.658;2023-07-31T14:59:55;9.18;;;4.65;;
42726;SDS011;28372;56.832;60.658;2023-07-31T15:02:23;8.45;;;5.15;;
42726;SDS011;28372;56.832;60.658;2023-07-31T15:04:52;8.75;;;5.35;;
42726;SDS011;28372;56.832;60.658;2023-07-31T15:07:20;7.97;;;5.22;;
42726;SDS011;28372;56.832;60.658;2023-07-31T15:09:48;9.13;;;5.10;;
42726;SDS011;28372;56.832;60.658;2023-07-31T15:12:15;7.28;;;4.93;;
42726;SDS011;28372;56.832;60.658;2023-07-31T15:14:44;10.52;;;5.53;;
42726;SDS011;28372;56.832;60.658;2023-07-31T15:17:11;7.68;;;5.50;;
42726;SDS011;28372;56.832;60.658;2023-07-31T15:19:39;7.80;;;5.30;;
42726;SDS011;28372;56.832;60.658;2023-07-31T15:22:07;8.40;;;5.47;;
42726;SDS011;28372;56.832;60.658;2023-07-31T15:24:35;7.93;;;5.40;;
42726;SDS011;28372;56.832;60.658;2023-07-31T15:27:03;8.10;;;5.10;;
42726;SDS011;28372;56.832;60.658;2023-07-31T15:29:30;6.85;;;5.13;;
42726;SDS011;28372;56.832;60.658;2023-07-31T15:31:59;10.20;;;5.35;;
42726;SDS011;28372;56.832;60.658;2023-07-31T15:34:27;9.30;;;5.53;;
42726;SDS011;28372;56.832;60.658;2023-07-31T15:36:55;9.88;;;5.53;;
42726;SDS011;28372;56.832;60.658;2023-07-31T15:39:22;9.52;;;5.35;;
42726;SDS011;28372;56.832;60.658;2023-07-31T15:41:50;8.40;;;5.72;;
42726;SDS011;28372;56.832;60.658;2023-07-31T15:44:18;10.68;;;5.30;;